createdAt,value
2019-04-20T00:00:04.582Z,13.93
2019-04-20T00:02:31.662Z,13.84
2019-04-20T00:05:01.168Z,13.57
2019-04-20T00:07:34.347Z,13.62
2019-04-20T00:10:08.743Z,13.61
2019-04-20T00:12:45.397Z,13.56
2019-04-20T00:15:02.968Z,13.45
2019-04-20T00:17:32.736Z,13.41
2019-04-20T00:20:09.196Z,13.54
2019-04-20T00:22:48.604Z,13.58
2019-04-20T00:25:42.949Z,13.31
2019-04-20T00:28:19.885Z,13.32
2019-04-20T00:30:53.273Z,13.10
2019-04-20T00:33:21.982Z,12.99
2019-04-20T00:35:35.963Z,12.86
2019-04-20T00:38:05.629Z,12.77
2019-04-20T00:40:35.756Z,12.74
2019-04-20T00:43:06.557Z,12.69
2019-04-20T00:45:41.392Z,12.67
2019-04-20T00:48:18.552Z,12.62
2019-04-20T00:50:48.741Z,12.48
2019-04-20T00:53:19.908Z,12.49
2019-04-20T00:55:39.962Z,12.33
2019-04-20T00:58:19.290Z,12.26
2019-04-20T01:01:04.222Z,12.21
2019-04-20T01:03:28.928Z,12.08
2019-04-20T01:06:17.626Z,12.05
2019-04-20T01:08:36.087Z,11.98
2019-04-20T01:11:06.005Z,11.88
2019-04-20T01:13:42.138Z,11.77
2019-04-20T01:16:14.693Z,11.75
2019-04-20T01:18:35.929Z,11.69
2019-04-20T01:21:12.835Z,11.68
2019-04-20T01:23:44.066Z,11.66
2019-04-20T01:26:11.556Z,11.56
2019-04-20T01:28:52.811Z,11.52
2019-04-20T01:31:21.295Z,11.54
2019-04-20T01:33:50.620Z,11.57
2019-04-20T01:36:25.469Z,11.65
2019-04-20T01:38:55.351Z,11.69
2019-04-20T01:41:14.031Z,11.93
2019-04-20T01:43:43.637Z,11.92
2019-04-20T01:46:18.269Z,12.03
2019-04-20T01:48:44.632Z,12.15
2019-04-20T01:51:21.282Z,12.28
2019-04-20T01:54:08.272Z,12.34
2019-04-20T01:56:37.615Z,12.38
2019-04-20T01:59:21.413Z,12.16
2019-04-20T02:02:11.681Z,12.07
2019-04-20T02:04:45.922Z,11.97
2019-04-20T02:07:13.624Z,11.93
2019-04-20T02:09:49.967Z,11.88
2019-04-20T02:12:21.660Z,11.89
2019-04-20T02:14:50.525Z,11.97
2019-04-20T02:17:26.196Z,11.90
2019-04-20T02:20:06.593Z,12.13
2019-04-20T02:22:37.292Z,12.31
2019-04-20T02:24:46.876Z,12.08
2019-04-20T02:27:19.750Z,12.03
2019-04-20T02:30:14.098Z,12.06
2019-04-20T02:32:56.050Z,12.08
2019-04-20T02:35:42.551Z,12.07
2019-04-20T02:38:36.562Z,12.04
2019-04-20T02:40:58.383Z,11.94
2019-04-20T02:43:44.287Z,11.69
2019-04-20T02:46:22.486Z,11.62
2019-04-20T02:48:35.027Z,11.57
2019-04-20T02:50:59.210Z,11.45
2019-04-20T02:53:51.346Z,11.41
2019-04-20T02:56:04.869Z,11.29
2019-04-20T02:58:39.034Z,11.33
2019-04-20T03:00:58.347Z,11.37
2019-04-20T03:03:19.557Z,11.38
2019-04-20T03:05:45.452Z,11.32
2019-04-20T03:08:22.342Z,11.31
2019-04-20T03:11:01.323Z,11.29
2019-04-20T03:13:26.637Z,11.48
2019-04-20T03:15:56.499Z,11.40
2019-04-20T03:18:25.522Z,11.44
2019-04-20T03:20:57.769Z,11.51
2019-04-20T03:23:40.033Z,11.54
2019-04-20T03:26:12.777Z,11.47
2019-04-20T03:28:53.801Z,11.42
2019-04-20T03:31:53.715Z,11.36
2019-04-20T03:34:23.011Z,11.28
2019-04-20T03:36:44.666Z,11.34
2019-04-20T03:39:01.526Z,11.22
2019-04-20T03:41:22.519Z,11.07
2019-04-20T03:43:43.553Z,10.88
2019-04-20T03:46:15.990Z,10.88
2019-04-20T03:49:01.046Z,10.60
2019-04-20T03:51:35.262Z,10.60
2019-04-20T03:54:22.229Z,10.81
2019-04-20T03:57:12.515Z,10.76
2019-04-20T03:59:56.013Z,10.72
2019-04-20T04:02:54.594Z,10.68
2019-04-20T04:05:19.233Z,10.76
2019-04-20T04:07:40.383Z,10.72
2019-04-20T04:10:16.865Z,10.64
2019-04-20T04:13:09.538Z,10.55
2019-04-20T04:15:47.899Z,10.48
2019-04-20T04:18:16.911Z,10.48
2019-04-20T04:20:47.865Z,10.48
2019-04-20T04:23:32.326Z,10.48
2019-04-20T04:25:59.415Z,10.48
2019-04-20T04:28:28.399Z,10.44
2019-04-20T04:31:05.105Z,10.39
2019-04-20T04:36:01.098Z,10.39
2019-04-20T04:38:39.573Z,10.35
2019-04-20T04:41:16.961Z,10.37
2019-04-20T04:43:37.239Z,10.37
2019-04-20T04:45:51.192Z,10.39
2019-04-20T04:48:27.413Z,10.33
2019-04-20T04:50:58.970Z,10.33
2019-04-20T04:53:33.790Z,10.38
2019-04-20T04:55:58.562Z,10.55
2019-04-20T04:58:26.056Z,10.78
2019-04-20T05:01:03.794Z,10.78
2019-04-20T05:03:44.995Z,10.83
2019-04-20T05:06:20.881Z,10.79
2019-04-20T05:08:39.653Z,10.85
2019-04-20T05:11:04.713Z,10.91
2019-04-20T05:13:42.819Z,10.92
2019-04-20T05:16:19.217Z,11.00
2019-04-20T05:18:59.174Z,11.10
2019-04-20T05:21:34.165Z,11.32
2019-04-20T05:24:09.943Z,11.26
2019-04-20T05:26:58.285Z,11.26
2019-04-20T05:29:11.792Z,11.53
2019-04-20T05:31:42.350Z,11.86
2019-04-20T05:34:25.689Z,11.92
2019-04-20T05:36:50.612Z,11.92
2019-04-20T05:39:28.779Z,11.99
2019-04-20T05:41:51.736Z,11.99
2019-04-20T05:44:41.309Z,11.86
2019-04-20T05:47:11.348Z,11.86
2019-04-20T05:49:34.553Z,11.84
2019-04-20T05:52:24.146Z,11.92
2019-04-20T05:54:38.814Z,11.88
2019-04-20T05:57:17.221Z,11.91
2019-04-20T05:59:45.322Z,12.12
2019-04-20T06:02:16.986Z,12.23
2019-04-20T06:04:55.872Z,12.26
2019-04-20T06:07:18.438Z,12.26
2019-04-20T06:09:47.910Z,12.27
2019-04-20T06:12:33.062Z,12.26
2019-04-20T06:15:04.596Z,12.46
2019-04-20T06:18:01.062Z,12.42
2019-04-20T06:20:31.300Z,12.61
2019-04-20T06:23:11.949Z,12.53
2019-04-20T06:25:54.843Z,12.54
2019-04-20T06:28:06.685Z,12.58
2019-04-20T06:30:40.622Z,12.82
2019-04-20T06:34:07.553Z,12.73
2019-04-20T06:36:32.194Z,12.75
2019-04-20T06:39:02.312Z,12.81
2019-04-20T06:41:45.203Z,12.94
2019-04-20T06:44:06.518Z,13.11
2019-04-20T06:46:28.540Z,13.26
2019-04-20T06:49:10.639Z,13.17
2019-04-20T06:51:34.891Z,13.13
2019-04-20T06:54:17.637Z,13.21
2019-04-20T06:56:54.071Z,13.29
2019-04-20T06:59:36.022Z,13.53
2019-04-20T07:02:02.985Z,13.57
2019-04-20T07:04:46.126Z,13.66
2019-04-20T07:07:02.303Z,13.84
2019-04-20T07:09:42.081Z,13.84
2019-04-20T07:11:57.646Z,14.05
2019-04-20T07:14:25.888Z,14.04
2019-04-20T07:17:20.657Z,14.18
2019-04-20T07:19:45.367Z,14.25
2019-04-20T07:22:40.767Z,14.43
2019-04-20T07:25:16.055Z,14.50
2019-04-20T07:27:42.928Z,14.51
2019-04-20T07:30:12.295Z,14.51
2019-04-20T07:32:48.453Z,14.51
2019-04-20T07:35:14.502Z,14.45
2019-04-20T07:38:08.691Z,14.50
2019-04-20T07:40:36.047Z,14.60
2019-04-20T07:42:51.799Z,14.66
2019-04-20T07:45:28.410Z,14.87
2019-04-20T07:47:52.733Z,14.87
2019-04-20T07:50:13.655Z,14.79
2019-04-20T07:52:43.275Z,15.08
2019-04-20T07:57:52.807Z,15.11
2019-04-20T08:00:38.532Z,15.21
2019-04-20T08:03:21.977Z,15.31
2019-04-20T08:05:45.874Z,15.28
2019-04-20T08:08:23.853Z,15.29
2019-04-20T08:10:52.323Z,15.48
2019-04-20T08:13:35.328Z,15.52
2019-04-20T08:16:07.340Z,15.59
2019-04-20T08:18:40.230Z,15.51
2019-04-20T08:21:08.309Z,15.60
2019-04-20T08:23:38.903Z,15.69
2019-04-20T08:26:00.387Z,15.95
2019-04-20T08:28:35.910Z,16.07
2019-04-20T08:31:29.830Z,16.10
2019-04-20T08:36:49.195Z,16.24
2019-04-20T08:39:32.429Z,16.41
2019-04-20T08:41:48.827Z,16.48
2019-04-20T08:44:38.161Z,16.51
2019-04-20T08:46:53.624Z,16.61
2019-04-20T08:49:23.391Z,16.69
2019-04-20T08:52:00.145Z,16.80
2019-04-20T08:54:17.015Z,16.93
2019-04-20T08:56:36.020Z,16.98
2019-04-20T08:58:57.723Z,17.19
2019-04-20T09:01:31.951Z,17.18
2019-04-20T09:04:06.586Z,17.32
2019-04-20T09:06:41.754Z,17.40
2019-04-20T09:09:30.438Z,17.46
2019-04-20T09:11:49.417Z,17.52
2019-04-20T09:14:21.335Z,17.70
2019-04-20T09:16:59.702Z,17.69
2019-04-20T09:19:36.710Z,16.36
2019-04-20T09:22:26.724Z,17.74
2019-04-20T09:25:13.256Z,18.08
2019-04-20T09:27:26.894Z,18.09
2019-04-20T09:30:04.602Z,18.27
2019-04-20T09:32:35.458Z,18.33
2019-04-20T09:35:11.722Z,18.42
2019-04-20T09:37:44.648Z,18.49
2019-04-20T09:40:29.226Z,18.62
2019-04-20T09:42:49.052Z,18.72
2019-04-20T09:45:31.103Z,18.87
2019-04-20T09:47:54.923Z,18.94
2019-04-20T09:50:45.795Z,18.94
2019-04-20T09:53:08.982Z,19.01
2019-04-20T09:55:37.832Z,19.09
2019-04-20T09:58:09.750Z,19.07
2019-04-20T10:00:53.010Z,19.25
2019-04-20T10:03:06.648Z,19.20
2019-04-20T10:05:35.751Z,19.24
2019-04-20T10:08:09.089Z,19.28
2019-04-20T10:10:40.566Z,19.51
2019-04-20T10:13:07.211Z,19.65
2019-04-20T10:15:37.445Z,19.71
2019-04-20T10:18:07.795Z,19.79
2019-04-20T10:20:38.858Z,19.90
2019-04-20T10:23:08.706Z,19.96
2019-04-20T10:25:38.411Z,19.99
2019-04-20T10:28:07.613Z,20.03
2019-04-20T10:30:36.815Z,20.10
2019-04-20T10:33:05.812Z,20.28
2019-04-20T10:35:35.882Z,20.25
2019-04-20T10:38:09.641Z,20.31
2019-04-20T10:40:52.312Z,20.30
2019-04-20T10:43:10.176Z,20.41
2019-04-20T10:45:39.245Z,20.47
2019-04-20T10:48:08.983Z,20.41
2019-04-20T10:50:38.970Z,20.63
2019-04-20T10:53:10.184Z,20.69
2019-04-20T10:55:39.744Z,20.89
2019-04-20T10:58:09.356Z,21.02
2019-04-20T11:00:44.255Z,21.10
2019-04-20T11:03:17.794Z,21.15
2019-04-20T11:05:47.173Z,21.24
2019-04-20T11:08:16.856Z,21.10
2019-04-20T11:10:55.462Z,21.13
2019-04-20T11:13:17.228Z,21.18
2019-04-20T11:15:48.461Z,21.37
2019-04-20T11:18:17.757Z,21.53
2019-04-20T11:20:46.568Z,21.50
2019-04-20T11:23:16.144Z,21.61
2019-04-20T11:25:48.335Z,21.60
2019-04-20T11:28:17.096Z,21.70
2019-04-20T11:30:46.135Z,21.89
2019-04-20T11:33:16.134Z,21.82
2019-04-20T11:35:46.482Z,21.86
2019-04-20T11:38:17.379Z,21.74
2019-04-20T11:40:48.173Z,21.77
2019-04-20T11:43:17.835Z,21.75
2019-04-20T11:45:46.881Z,21.83
2019-04-20T11:48:15.892Z,21.92
2019-04-20T11:50:45.441Z,21.97
2019-04-20T11:53:15.309Z,22.03
2019-04-20T11:55:44.660Z,22.12
2019-04-20T11:58:14.218Z,22.17
2019-04-20T12:00:57.333Z,22.04
2019-04-20T12:03:29.848Z,22.02
2019-04-20T12:05:55.745Z,22.13
2019-04-20T12:08:25.005Z,22.20
2019-04-20T12:10:57.702Z,22.12
2019-04-20T12:13:24.856Z,22.21
2019-04-20T12:15:53.991Z,22.46
2019-04-20T12:18:23.375Z,22.48
2019-04-20T12:20:52.667Z,22.42
2019-04-20T12:23:22.310Z,22.51
2019-04-20T12:25:52.364Z,22.57
2019-04-20T12:28:21.957Z,22.66
2019-04-20T12:30:51.479Z,22.90
2019-04-20T12:33:20.367Z,22.92
2019-04-20T12:35:50.082Z,22.93
2019-04-20T12:38:19.236Z,23.08
2019-04-20T12:40:48.490Z,23.08
2019-04-20T12:43:17.617Z,23.13
2019-04-20T12:45:47.595Z,23.19
2019-04-20T12:48:17.632Z,23.18
2019-04-20T12:50:47.793Z,23.11
2019-04-20T12:53:17.154Z,23.01
2019-04-20T12:55:46.546Z,23.01
2019-04-20T12:58:16.721Z,23.14
2019-04-20T13:00:49.324Z,23.04
2019-04-20T13:03:19.398Z,23.13
2019-04-20T13:05:49.874Z,23.24
2019-04-20T13:08:26.685Z,23.22
2019-04-20T13:11:13.016Z,23.26
2019-04-20T13:14:04.432Z,23.17
2019-04-20T13:16:36.479Z,23.15
2019-04-20T13:19:05.726Z,23.32
2019-04-20T13:21:34.912Z,23.45
2019-04-20T13:24:05.112Z,23.58
2019-04-20T13:26:35.153Z,23.64
2019-04-20T13:29:04.727Z,23.52
2019-04-20T13:31:33.828Z,23.47
2019-04-20T13:34:03.605Z,23.56
2019-04-20T13:36:32.687Z,23.53
2019-04-20T13:39:01.773Z,23.37
2019-04-20T13:41:31.716Z,23.48
2019-04-20T13:44:01.999Z,23.47
2019-04-20T13:46:31.325Z,23.49
2019-04-20T13:49:00.779Z,23.55
2019-04-20T13:51:30.879Z,23.57
2019-04-20T13:54:01.470Z,23.62
2019-04-20T13:56:31.897Z,23.52
2019-04-20T13:59:05.816Z,23.64
2019-04-20T14:01:52.855Z,23.65
2019-04-20T14:04:28.484Z,23.49
2019-04-20T14:06:59.476Z,23.48
2019-04-20T14:09:29.721Z,23.32
2019-04-20T14:12:13.197Z,23.41
2019-04-20T14:14:29.327Z,23.24
2019-04-20T14:16:59.043Z,22.88
2019-04-20T14:19:29.212Z,23.01
2019-04-20T14:21:58.123Z,23.12
2019-04-20T14:24:26.879Z,23.08
2019-04-20T14:26:56.913Z,23.08
2019-04-20T14:29:27.272Z,23.16
2019-04-20T14:32:01.835Z,22.86
2019-04-20T14:34:31.019Z,22.59
2019-04-20T14:37:00.253Z,22.74
2019-04-20T14:39:30.232Z,22.93
2019-04-20T14:42:00.378Z,22.78
2019-04-20T14:44:29.892Z,22.64
2019-04-20T14:46:59.995Z,22.44
2019-04-20T14:49:28.802Z,22.60
2019-04-20T14:51:59.237Z,22.92
2019-04-20T14:54:29.622Z,22.85
2019-04-20T14:56:59.161Z,22.87
2019-04-20T14:59:33.754Z,23.03
2019-04-20T15:02:15.236Z,22.86
2019-04-20T15:04:45.321Z,22.61
2019-04-20T15:07:15.012Z,22.67
2019-04-20T15:09:44.653Z,22.69
2019-04-20T15:12:14.937Z,22.81
2019-04-20T15:14:44.904Z,22.87
2019-04-20T15:17:19.460Z,22.87
2019-04-20T15:20:19.690Z,23.00
2019-04-20T15:22:49.939Z,23.15
2019-04-20T15:25:18.937Z,23.02
2019-04-20T15:27:48.215Z,22.72
2019-04-20T15:30:18.378Z,22.53
2019-04-20T15:32:47.333Z,22.55
2019-04-20T15:35:19.032Z,22.47
2019-04-20T15:37:47.064Z,22.48
2019-04-20T15:40:17.294Z,22.37
2019-04-20T15:42:56.144Z,22.31
2019-04-20T15:45:17.058Z,22.38
2019-04-20T15:47:48.014Z,22.34
2019-04-20T15:50:18.061Z,22.43
2019-04-20T15:52:52.649Z,22.47
2019-04-20T15:55:26.465Z,22.38
2019-04-20T15:57:50.499Z,22.33
2019-04-20T16:00:20.362Z,22.24
2019-04-20T16:03:21.433Z,22.24
2019-04-20T16:06:03.300Z,22.19
2019-04-20T16:08:34.603Z,22.05
2019-04-20T16:11:04.931Z,22.02
2019-04-20T16:13:39.606Z,21.90
2019-04-20T16:16:05.906Z,21.86
2019-04-20T16:18:35.100Z,22.00
2019-04-20T16:21:10.045Z,22.03
2019-04-20T16:24:06.729Z,21.82
2019-04-20T16:26:49.592Z,21.73
2019-04-20T16:29:19.752Z,21.66
2019-04-20T16:31:50.270Z,21.63
2019-04-20T16:34:19.388Z,21.61
2019-04-20T16:36:49.289Z,21.55
2019-04-20T16:39:20.407Z,21.50
2019-04-20T16:41:50.729Z,21.37
2019-04-20T16:44:20.958Z,21.42
2019-04-20T16:46:50.158Z,21.37
2019-04-20T16:49:19.285Z,21.21
2019-04-20T16:51:49.340Z,21.07
2019-04-20T16:54:19.603Z,20.98
2019-04-20T16:56:48.612Z,20.93
2019-04-20T16:59:22.563Z,20.81
2019-04-20T17:01:51.480Z,20.64
2019-04-20T17:04:22.661Z,20.63
2019-04-20T17:07:10.328Z,20.46
2019-04-20T17:09:39.857Z,20.40
2019-04-20T17:12:09.908Z,20.21
2019-04-20T17:14:39.893Z,20.18
2019-04-20T17:17:09.476Z,20.20
2019-04-20T17:19:41.795Z,20.16
2019-04-20T17:22:11.684Z,19.91
2019-04-20T17:24:40.617Z,19.83
2019-04-20T17:27:29.019Z,19.85
2019-04-20T17:30:19.505Z,19.73
2019-04-20T17:32:47.523Z,19.72
2019-04-20T17:35:28.308Z,19.56
2019-04-20T17:37:49.976Z,19.36
2019-04-20T17:40:39.768Z,19.41
2019-04-20T17:43:01.707Z,19.30
2019-04-20T17:45:32.351Z,19.27
2019-04-20T17:48:10.116Z,19.21
2019-04-20T17:50:41.523Z,19.08
2019-04-20T17:53:05.240Z,18.94
2019-04-20T17:55:39.495Z,18.88
2019-04-20T17:58:05.634Z,18.73
2019-04-20T18:00:58.076Z,18.84
2019-04-20T18:04:03.530Z,18.60
2019-04-20T18:06:20.013Z,18.48
2019-04-20T18:08:49.546Z,18.37
2019-04-20T18:11:09.165Z,18.20
2019-04-20T18:13:34.180Z,18.05
2019-04-20T18:16:29.995Z,17.97
2019-04-20T18:19:08.446Z,17.94
2019-04-20T18:21:41.084Z,17.89
2019-04-20T18:24:15.853Z,17.75
2019-04-20T18:27:01.296Z,17.63
2019-04-20T18:29:32.575Z,17.67
2019-04-20T18:31:47.170Z,17.55
2019-04-20T18:34:40.360Z,17.41
2019-04-20T18:37:13.430Z,17.28
2019-04-20T18:39:50.580Z,17.10
2019-04-20T18:42:18.632Z,16.92
2019-04-20T18:45:00.922Z,16.81
2019-04-20T18:47:33.084Z,16.70
2019-04-20T18:49:52.365Z,16.54
2019-04-20T18:52:13.725Z,16.45
2019-04-20T18:54:44.903Z,16.38
2019-04-20T18:57:19.220Z,16.35
2019-04-20T18:59:49.571Z,16.23
2019-04-20T19:02:22.609Z,16.18
2019-04-20T19:04:45.797Z,16.11
2019-04-20T19:07:14.838Z,15.99
2019-04-20T19:09:44.814Z,15.94
2019-04-20T19:12:15.095Z,15.92
2019-04-20T19:15:03.386Z,15.86
2019-04-20T19:17:49.774Z,15.77
2019-04-20T19:20:28.900Z,15.69
2019-04-20T19:22:58.004Z,15.69
2019-04-20T19:25:31.694Z,15.64
2019-04-20T19:27:59.284Z,15.57
2019-04-20T19:30:37.230Z,15.54
2019-04-20T19:33:17.578Z,15.55
2019-04-20T19:35:40.567Z,15.45
2019-04-20T19:38:09.348Z,15.36
2019-04-20T19:40:42.887Z,15.23
2019-04-20T19:43:14.870Z,15.18
2019-04-20T19:45:55.253Z,15.13
2019-04-20T19:48:18.929Z,15.11
2019-04-20T19:50:54.748Z,14.97
2019-04-20T19:53:26.663Z,14.89
2019-04-20T19:55:47.839Z,14.78
2019-04-20T19:58:24.989Z,14.67
2019-04-20T20:00:55.523Z,14.60
2019-04-20T20:03:23.910Z,14.53
2019-04-20T20:05:54.806Z,14.47
2019-04-20T20:08:26.234Z,14.43
2019-04-20T20:10:57.658Z,14.36
2019-04-20T20:13:31.945Z,14.29
2019-04-20T20:16:02.410Z,14.29
2019-04-20T20:18:40.698Z,14.33
2019-04-20T20:21:13.833Z,14.27
2019-04-20T20:23:27.943Z,14.46
2019-04-20T20:25:57.035Z,14.49
2019-04-20T20:28:35.779Z,14.52
2019-04-20T20:31:08.627Z,14.45
2019-04-20T20:33:47.701Z,14.51
2019-04-20T20:36:05.593Z,14.40
2019-04-20T20:38:37.079Z,14.46
2019-04-20T20:41:08.721Z,14.36
2019-04-20T20:43:45.773Z,14.33
2019-04-20T20:46:16.289Z,14.38
2019-04-20T20:48:49.475Z,14.33
2019-04-20T20:51:28.449Z,14.41
2019-04-20T20:53:49.800Z,14.46
2019-04-20T20:56:15.025Z,14.43
2019-04-20T20:58:48.548Z,14.36
2019-04-20T21:01:14.393Z,14.38
2019-04-20T21:03:42.103Z,14.50
2019-04-20T21:06:07.579Z,14.56
2019-04-20T21:08:43.984Z,14.43
2019-04-20T21:11:13.094Z,14.24
2019-04-20T21:13:40.173Z,14.32
2019-04-20T21:16:16.650Z,14.15
2019-04-20T21:18:56.778Z,14.17
2019-04-20T21:21:23.076Z,14.09
2019-04-20T21:23:48.056Z,14.04
2019-04-20T21:26:17.807Z,14.02
2019-04-20T21:28:42.012Z,13.98
2019-04-20T21:31:16.239Z,13.89
2019-04-20T21:33:42.909Z,14.02
2019-04-20T21:36:13.548Z,13.90
2019-04-20T21:38:44.598Z,13.84
2019-04-20T21:41:16.197Z,13.63
2019-04-20T21:43:44.667Z,13.50
2019-04-20T21:46:14.289Z,13.33
2019-04-20T21:48:57.172Z,13.33
2019-04-20T21:51:29.333Z,13.26
2019-04-20T21:53:44.342Z,13.09
2019-04-20T21:56:13.390Z,13.04
2019-04-20T21:58:49.449Z,12.97
2019-04-20T22:01:23.905Z,12.86
2019-04-20T22:03:45.557Z,12.80
2019-04-20T22:06:16.152Z,12.81
2019-04-20T22:08:52.996Z,12.77
2019-04-20T22:11:15.836Z,12.74
2019-04-20T22:13:47.399Z,12.81
2019-04-20T22:16:16.668Z,12.69
2019-04-20T22:18:50.998Z,12.53
2019-04-20T22:21:25.805Z,12.51
2019-04-20T22:24:03.225Z,12.42
2019-04-20T22:26:28.718Z,12.35
2019-04-20T22:28:48.110Z,12.34
2019-04-20T22:31:18.323Z,12.25
2019-04-20T22:33:50.592Z,12.25
2019-04-20T22:36:20.230Z,12.25
2019-04-20T22:39:09.579Z,12.22
2019-04-20T22:41:45.778Z,12.22
2019-04-20T22:44:20.404Z,12.30
2019-04-20T22:46:47.589Z,12.28
2019-04-20T22:49:33.004Z,12.17
2019-04-20T22:51:58.569Z,12.14
2019-04-20T22:54:36.428Z,12.11
2019-04-20T22:57:01.044Z,12.06
2019-04-20T22:59:30.747Z,11.97
2019-04-20T23:01:56.762Z,11.94
2019-04-20T23:04:22.371Z,11.87
2019-04-20T23:06:52.336Z,11.85
2019-04-20T23:09:22.623Z,11.83
2019-04-20T23:11:54.648Z,11.85
2019-04-20T23:14:22.602Z,11.99
2019-04-20T23:16:53.943Z,12.13
2019-04-20T23:19:35.758Z,12.37
2019-04-20T23:21:59.773Z,12.44
2019-04-20T23:24:26.940Z,12.41
2019-04-20T23:26:57.284Z,12.25
2019-04-20T23:29:31.437Z,12.13
2019-04-20T23:32:03.031Z,11.92
2019-04-20T23:34:31.009Z,11.60
2019-04-20T23:36:58.862Z,11.46
2019-04-20T23:39:30.166Z,11.46
2019-04-20T23:42:02.462Z,11.40
2019-04-20T23:44:54.176Z,11.37
2019-04-20T23:47:27.896Z,11.62
2019-04-20T23:50:17.878Z,11.62
2019-04-20T23:52:56.425Z,11.70
2019-04-20T23:55:06.025Z,11.71
2019-04-20T23:57:33.602Z,11.69
